sensor_id;sensor_type;location;lat;lon;timestamp;P1;durP1;ratioP1;P2;durP2;ratioP2
63110;SDS011;49201;53.426;10.300;2022-10-16T00:01:45;10.33;;;9.23;;
63110;SDS011;49201;53.426;10.300;2022-10-16T00:04:11;9.73;;;8.47;;
63110;SDS011;49201;53.426;10.300;2022-10-16T00:06:37;9.67;;;8.77;;
63110;SDS011;49201;53.426;10.300;2022-10-16T00:09:04;10.57;;;9.47;;
63110;SDS011;49201;53.426;10.300;2022-10-16T00:11:31;9.47;;;8.57;;
63110;SDS011;49201;53.426;10.300;2022-10-16T00:13:59;11.03;;;9.80;;
63110;SDS011;49201;53.426;10.300;2022-10-16T00:16:27;11.93;;;9.17;;
63110;SDS011;49201;53.426;10.300;2022-10-16T00:18:53;10.93;;;9.17;;
63110;SDS011;49201;53.426;10.300;2022-10-16T00:21:20;11.23;;;8.90;;
63110;SDS011;49201;53.426;10.300;2022-10-16T00:23:50;11.77;;;9.20;;
63110;SDS011;49201;53.426;10.300;2022-10-16T00:26:17;11.57;;;8.57;;
63110;SDS011;49201;53.426;10.300;2022-10-16T00:28:45;11.27;;;8.80;;
63110;SDS011;49201;53.426;10.300;2022-10-16T00:31:11;9.67;;;8.67;;
63110;SDS011;49201;53.426;10.300;2022-10-16T00:33:38;10.33;;;9.23;;
63110;SDS011;49201;53.426;10.300;2022-10-16T00:36:05;9.50;;;8.50;;
63110;SDS011;49201;53.426;10.300;2022-10-16T00:38:32;10.67;;;9.60;;
63110;SDS011;49201;53.426;10.300;2022-10-16T00:40:57;11.87;;;9.23;;
63110;SDS011;49201;53.426;10.300;2022-10-16T00:43:34;12.50;;;9.50;;
63110;SDS011;49201;53.426;10.300;2022-10-16T00:46:04;10.10;;;9.10;;
63110;SDS011;49201;53.426;10.300;2022-10-16T00:48:35;9.50;;;8.57;;
63110;SDS011;49201;53.426;10.300;2022-10-16T00:51:01;10.33;;;8.63;;
63110;SDS011;49201;53.426;10.300;2022-10-16T00:53:26;9.97;;;8.00;;
63110;SDS011;49201;53.426;10.300;2022-10-16T00:55:52;10.50;;;8.33;;
63110;SDS011;49201;53.426;10.300;2022-10-16T00:58:18;8.90;;;7.97;;
63110;SDS011;49201;53.426;10.300;2022-10-16T01:00:44;9.10;;;8.20;;
63110;SDS011;49201;53.426;10.300;2022-10-16T01:03:23;8.27;;;7.43;;
63110;SDS011;49201;53.426;10.300;2022-10-16T01:06:19;14.20;;;8.20;;
63110;SDS011;49201;53.426;10.300;2022-10-16T01:13:55;9.93;;;7.73;;
63110;SDS011;49201;53.426;10.300;2022-10-16T01:16:30;11.40;;;8.57;;
63110;SDS011;49201;53.426;10.300;2022-10-16T01:19:22;9.57;;;8.50;;
63110;SDS011;49201;53.426;10.300;2022-10-16T01:21:51;9.23;;;7.80;;
63110;SDS011;49201;53.426;10.300;2022-10-16T01:27:18;11.23;;;7.73;;
63110;SDS011;49201;53.426;10.300;2022-10-16T01:29:52;9.97;;;7.03;;
63110;SDS011;49201;53.426;10.300;2022-10-16T01:35:38;7.80;;;6.67;;
63110;SDS011;49201;53.426;10.300;2022-10-16T01:38:19;7.63;;;6.47;;
63110;SDS011;49201;53.426;10.300;2022-10-16T01:40:52;8.63;;;6.73;;
63110;SDS011;49201;53.426;10.300;2022-10-16T01:43:35;7.60;;;6.03;;
63110;SDS011;49201;53.426;10.300;2022-10-16T01:46:05;7.90;;;6.13;;
63110;SDS011;49201;53.426;10.300;2022-10-16T01:48:31;8.17;;;6.17;;
63110;SDS011;49201;53.426;10.300;2022-10-16T01:51:09;7.00;;;5.77;;
63110;SDS011;49201;53.426;10.300;2022-10-16T01:53:37;6.20;;;5.60;;
63110;SDS011;49201;53.426;10.300;2022-10-16T01:56:04;7.03;;;5.43;;
63110;SDS011;49201;53.426;10.300;2022-10-16T01:58:35;6.90;;;6.20;;
63110;SDS011;49201;53.426;10.300;2022-10-16T02:01:05;8.83;;;5.50;;
63110;SDS011;49201;53.426;10.300;2022-10-16T02:03:35;7.83;;;6.07;;
63110;SDS011;49201;53.426;10.300;2022-10-16T02:06:02;6.77;;;5.20;;
63110;SDS011;49201;53.426;10.300;2022-10-16T02:08:28;5.80;;;4.90;;
63110;SDS011;49201;53.426;10.300;2022-10-16T02:10:59;4.97;;;4.47;;
63110;SDS011;49201;53.426;10.300;2022-10-16T02:13:39;7.27;;;4.90;;
63110;SDS011;49201;53.426;10.300;2022-10-16T02:16:10;6.37;;;4.93;;
63110;SDS011;49201;53.426;10.300;2022-10-16T02:18:37;5.17;;;3.97;;
63110;SDS011;49201;53.426;10.300;2022-10-16T02:26:35;7.13;;;4.17;;
63110;SDS011;49201;53.426;10.300;2022-10-16T02:29:07;4.73;;;4.10;;
63110;SDS011;49201;53.426;10.300;2022-10-16T02:31:37;6.90;;;4.20;;
63110;SDS011;49201;53.426;10.300;2022-10-16T02:34:08;5.47;;;3.77;;
63110;SDS011;49201;53.426;10.300;2022-10-16T02:36:37;3.97;;;3.57;;
63110;SDS011;49201;53.426;10.300;2022-10-16T02:39:04;5.97;;;3.60;;
63110;SDS011;49201;53.426;10.300;2022-10-16T02:41:30;4.93;;;3.13;;
63110;SDS011;49201;53.426;10.300;2022-10-16T02:43:56;6.20;;;3.40;;
63110;SDS011;49201;53.426;10.300;2022-10-16T02:46:22;3.70;;;3.17;;
63110;SDS011;49201;53.426;10.300;2022-10-16T02:48:47;5.23;;;2.90;;
63110;SDS011;49201;53.426;10.300;2022-10-16T02:51:13;5.03;;;2.77;;
63110;SDS011;49201;53.426;10.300;2022-10-16T02:53:38;6.20;;;2.60;;
63110;SDS011;49201;53.426;10.300;2022-10-16T02:56:04;3.47;;;2.67;;
63110;SDS011;49201;53.426;10.300;2022-10-16T02:58:29;5.47;;;2.40;;
63110;SDS011;49201;53.426;10.300;2022-10-16T03:00:55;4.67;;;2.57;;
63110;SDS011;49201;53.426;10.300;2022-10-16T03:03:20;3.80;;;2.30;;
63110;SDS011;49201;53.426;10.300;2022-10-16T03:05:46;5.20;;;2.90;;
63110;SDS011;49201;53.426;10.300;2022-10-16T03:08:12;4.23;;;2.70;;
63110;SDS011;49201;53.426;10.300;2022-10-16T03:10:38;3.83;;;2.70;;
63110;SDS011;49201;53.426;10.300;2022-10-16T03:13:03;6.60;;;2.70;;
63110;SDS011;49201;53.426;10.300;2022-10-16T03:15:29;5.30;;;2.30;;
63110;SDS011;49201;53.426;10.300;2022-10-16T03:17:57;5.83;;;2.80;;
63110;SDS011;49201;53.426;10.300;2022-10-16T03:20:23;4.70;;;2.60;;
63110;SDS011;49201;53.426;10.300;2022-10-16T03:22:49;3.60;;;2.80;;
63110;SDS011;49201;53.426;10.300;2022-10-16T03:25:15;4.53;;;2.37;;
63110;SDS011;49201;53.426;10.300;2022-10-16T03:27:40;2.90;;;2.23;;
63110;SDS011;49201;53.426;10.300;2022-10-16T03:30:06;2.93;;;2.13;;
63110;SDS011;49201;53.426;10.300;2022-10-16T03:32:32;5.13;;;2.47;;
63110;SDS011;49201;53.426;10.300;2022-10-16T03:34:58;5.27;;;2.60;;
63110;SDS011;49201;53.426;10.300;2022-10-16T03:37:23;5.00;;;2.30;;
63110;SDS011;49201;53.426;10.300;2022-10-16T03:39:49;3.43;;;2.20;;
63110;SDS011;49201;53.426;10.300;2022-10-16T03:42:14;6.27;;;2.23;;
63110;SDS011;49201;53.426;10.300;2022-10-16T03:44:39;3.10;;;2.43;;
63110;SDS011;49201;53.426;10.300;2022-10-16T03:47:05;3.83;;;1.97;;
63110;SDS011;49201;53.426;10.300;2022-10-16T03:49:30;6.43;;;2.17;;
63110;SDS011;49201;53.426;10.300;2022-10-16T03:51:56;8.33;;;2.93;;
63110;SDS011;49201;53.426;10.300;2022-10-16T03:54:21;4.57;;;2.63;;
63110;SDS011;49201;53.426;10.300;2022-10-16T03:56:47;3.37;;;2.37;;
63110;SDS011;49201;53.426;10.300;2022-10-16T03:59:13;4.13;;;2.60;;
63110;SDS011;49201;53.426;10.300;2022-10-16T04:01:38;6.27;;;2.63;;
63110;SDS011;49201;53.426;10.300;2022-10-16T04:04:04;2.83;;;2.23;;
63110;SDS011;49201;53.426;10.300;2022-10-16T04:06:29;3.70;;;2.50;;
63110;SDS011;49201;53.426;10.300;2022-10-16T04:08:55;3.50;;;2.53;;
63110;SDS011;49201;53.426;10.300;2022-10-16T04:11:21;4.67;;;2.63;;
63110;SDS011;49201;53.426;10.300;2022-10-16T04:13:46;4.63;;;2.67;;
63110;SDS011;49201;53.426;10.300;2022-10-16T04:16:12;4.80;;;2.00;;
63110;SDS011;49201;53.426;10.300;2022-10-16T04:18:37;4.30;;;2.30;;
63110;SDS011;49201;53.426;10.300;2022-10-16T04:21:03;5.57;;;2.67;;
63110;SDS011;49201;53.426;10.300;2022-10-16T04:23:29;4.90;;;2.47;;
63110;SDS011;49201;53.426;10.300;2022-10-16T04:25:55;5.47;;;2.37;;
63110;SDS011;49201;53.426;10.300;2022-10-16T04:28:20;4.17;;;2.20;;
63110;SDS011;49201;53.426;10.300;2022-10-16T04:30:45;3.57;;;2.40;;
63110;SDS011;49201;53.426;10.300;2022-10-16T04:33:11;5.50;;;2.70;;
63110;SDS011;49201;53.426;10.300;2022-10-16T04:35:37;4.83;;;2.60;;
63110;SDS011;49201;53.426;10.300;2022-10-16T04:38:03;3.50;;;2.40;;
63110;SDS011;49201;53.426;10.300;2022-10-16T04:40:28;2.83;;;2.20;;
63110;SDS011;49201;53.426;10.300;2022-10-16T04:42:54;4.90;;;2.30;;
63110;SDS011;49201;53.426;10.300;2022-10-16T04:45:19;4.87;;;2.13;;
63110;SDS011;49201;53.426;10.300;2022-10-16T04:47:45;4.13;;;2.40;;
63110;SDS011;49201;53.426;10.300;2022-10-16T04:50:10;4.13;;;2.50;;
63110;SDS011;49201;53.426;10.300;2022-10-16T04:52:36;3.40;;;2.60;;
63110;SDS011;49201;53.426;10.300;2022-10-16T04:55:01;4.77;;;2.30;;
63110;SDS011;49201;53.426;10.300;2022-10-16T04:57:28;4.10;;;2.30;;
63110;SDS011;49201;53.426;10.300;2022-10-16T04:59:55;4.43;;;2.80;;
63110;SDS011;49201;53.426;10.300;2022-10-16T05:02:21;4.77;;;2.67;;
63110;SDS011;49201;53.426;10.300;2022-10-16T05:04:46;4.30;;;2.77;;
63110;SDS011;49201;53.426;10.300;2022-10-16T05:07:11;5.73;;;2.20;;
63110;SDS011;49201;53.426;10.300;2022-10-16T05:09:37;3.90;;;2.43;;
63110;SDS011;49201;53.426;10.300;2022-10-16T05:12:02;4.70;;;2.90;;
63110;SDS011;49201;53.426;10.300;2022-10-16T05:14:28;4.87;;;2.57;;
63110;SDS011;49201;53.426;10.300;2022-10-16T05:16:54;4.37;;;2.80;;
63110;SDS011;49201;53.426;10.300;2022-10-16T05:19:19;5.77;;;3.20;;
63110;SDS011;49201;53.426;10.300;2022-10-16T05:21:45;4.93;;;2.80;;
63110;SDS011;49201;53.426;10.300;2022-10-16T05:24:11;4.87;;;2.73;;
63110;SDS011;49201;53.426;10.300;2022-10-16T05:26:36;5.00;;;2.67;;
63110;SDS011;49201;53.426;10.300;2022-10-16T05:29:02;4.90;;;2.90;;
63110;SDS011;49201;53.426;10.300;2022-10-16T05:31:28;4.27;;;3.00;;
63110;SDS011;49201;53.426;10.300;2022-10-16T05:33:57;8.23;;;3.27;;
63110;SDS011;49201;53.426;10.300;2022-10-16T05:36:26;7.40;;;3.40;;
63110;SDS011;49201;53.426;10.300;2022-10-16T05:38:51;6.77;;;3.13;;
63110;SDS011;49201;53.426;10.300;2022-10-16T05:41:17;5.13;;;3.27;;
63110;SDS011;49201;53.426;10.300;2022-10-16T05:43:47;7.27;;;3.60;;
63110;SDS011;49201;53.426;10.300;2022-10-16T05:46:13;7.57;;;3.97;;
63110;SDS011;49201;53.426;10.300;2022-10-16T05:48:39;4.17;;;2.87;;
63110;SDS011;49201;53.426;10.300;2022-10-16T05:51:09;5.23;;;3.57;;
63110;SDS011;49201;53.426;10.300;2022-10-16T05:53:36;7.67;;;3.50;;
63110;SDS011;49201;53.426;10.300;2022-10-16T05:56:03;5.93;;;3.30;;
63110;SDS011;49201;53.426;10.300;2022-10-16T05:58:30;5.67;;;3.37;;
63110;SDS011;49201;53.426;10.300;2022-10-16T06:00:58;9.87;;;3.50;;
63110;SDS011;49201;53.426;10.300;2022-10-16T06:03:25;6.13;;;3.30;;
63110;SDS011;49201;53.426;10.300;2022-10-16T06:05:52;7.63;;;3.80;;
63110;SDS011;49201;53.426;10.300;2022-10-16T06:08:18;4.53;;;3.70;;
63110;SDS011;49201;53.426;10.300;2022-10-16T06:10:45;7.13;;;3.73;;
63110;SDS011;49201;53.426;10.300;2022-10-16T06:13:11;6.63;;;3.43;;
63110;SDS011;49201;53.426;10.300;2022-10-16T06:15:38;8.23;;;3.50;;
63110;SDS011;49201;53.426;10.300;2022-10-16T06:18:06;8.00;;;3.57;;
63110;SDS011;49201;53.426;10.300;2022-10-16T06:20:32;5.90;;;3.10;;
63110;SDS011;49201;53.426;10.300;2022-10-16T06:22:58;5.13;;;3.57;;
63110;SDS011;49201;53.426;10.300;2022-10-16T06:25:23;5.83;;;3.50;;
63110;SDS011;49201;53.426;10.300;2022-10-16T06:27:49;6.83;;;3.70;;
63110;SDS011;49201;53.426;10.300;2022-10-16T06:30:14;5.33;;;3.73;;
63110;SDS011;49201;53.426;10.300;2022-10-16T06:32:39;5.20;;;3.67;;
63110;SDS011;49201;53.426;10.300;2022-10-16T06:35:05;7.73;;;3.83;;
63110;SDS011;49201;53.426;10.300;2022-10-16T06:37:31;8.00;;;3.73;;
63110;SDS011;49201;53.426;10.300;2022-10-16T06:39:56;8.73;;;3.83;;
63110;SDS011;49201;53.426;10.300;2022-10-16T06:42:22;5.70;;;4.27;;
63110;SDS011;49201;53.426;10.300;2022-10-16T06:44:47;7.57;;;3.87;;
63110;SDS011;49201;53.426;10.300;2022-10-16T06:47:13;6.47;;;3.93;;
63110;SDS011;49201;53.426;10.300;2022-10-16T06:49:39;5.83;;;4.10;;
63110;SDS011;49201;53.426;10.300;2022-10-16T06:52:04;7.63;;;3.97;;
63110;SDS011;49201;53.426;10.300;2022-10-16T06:54:30;11.23;;;4.33;;
63110;SDS011;49201;53.426;10.300;2022-10-16T06:56:56;7.47;;;3.70;;
63110;SDS011;49201;53.426;10.300;2022-10-16T06:59:21;5.90;;;4.03;;
63110;SDS011;49201;53.426;10.300;2022-10-16T07:01:47;5.83;;;4.00;;
63110;SDS011;49201;53.426;10.300;2022-10-16T07:04:13;7.33;;;4.23;;
63110;SDS011;49201;53.426;10.300;2022-10-16T07:06:39;8.90;;;4.33;;
63110;SDS011;49201;53.426;10.300;2022-10-16T07:09:06;7.73;;;4.00;;
63110;SDS011;49201;53.426;10.300;2022-10-16T07:11:33;4.40;;;3.67;;
63110;SDS011;49201;53.426;10.300;2022-10-16T07:13:59;7.50;;;3.90;;
63110;SDS011;49201;53.426;10.300;2022-10-16T07:16:26;5.67;;;3.83;;
63110;SDS011;49201;53.426;10.300;2022-10-16T07:18:56;4.63;;;3.80;;
63110;SDS011;49201;53.426;10.300;2022-10-16T07:21:24;6.93;;;3.97;;
63110;SDS011;49201;53.426;10.300;2022-10-16T07:23:51;8.37;;;3.67;;
63110;SDS011;49201;53.426;10.300;2022-10-16T07:26:17;4.23;;;3.50;;
63110;SDS011;49201;53.426;10.300;2022-10-16T07:28:43;6.23;;;3.27;;
63110;SDS011;49201;53.426;10.300;2022-10-16T07:31:11;5.83;;;3.67;;
63110;SDS011;49201;53.426;10.300;2022-10-16T07:33:38;5.13;;;3.27;;
63110;SDS011;49201;53.426;10.300;2022-10-16T07:36:07;5.57;;;3.40;;
63110;SDS011;49201;53.426;10.300;2022-10-16T07:38:33;4.80;;;3.37;;
63110;SDS011;49201;53.426;10.300;2022-10-16T07:41:02;4.20;;;2.97;;
63110;SDS011;49201;53.426;10.300;2022-10-16T07:43:29;4.70;;;3.17;;
63110;SDS011;49201;53.426;10.300;2022-10-16T07:45:55;5.40;;;3.50;;
63110;SDS011;49201;53.426;10.300;2022-10-16T07:48:21;6.40;;;2.80;;
63110;SDS011;49201;53.426;10.300;2022-10-16T07:50:47;4.50;;;2.97;;
63110;SDS011;49201;53.426;10.300;2022-10-16T07:53:13;6.70;;;2.87;;
63110;SDS011;49201;53.426;10.300;2022-10-16T07:55:39;5.60;;;2.83;;
63110;SDS011;49201;53.426;10.300;2022-10-16T07:58:04;4.23;;;2.83;;
63110;SDS011;49201;53.426;10.300;2022-10-16T08:00:30;7.70;;;3.07;;
63110;SDS011;49201;53.426;10.300;2022-10-16T08:02:57;4.77;;;2.60;;
63110;SDS011;49201;53.426;10.300;2022-10-16T08:05:26;6.97;;;2.63;;
63110;SDS011;49201;53.426;10.300;2022-10-16T08:07:53;2.90;;;2.03;;
63110;SDS011;49201;53.426;10.300;2022-10-16T08:10:19;6.30;;;2.50;;
63110;SDS011;49201;53.426;10.300;2022-10-16T08:12:46;3.70;;;2.27;;
63110;SDS011;49201;53.426;10.300;2022-10-16T08:15:11;5.00;;;2.43;;
63110;SDS011;49201;53.426;10.300;2022-10-16T08:17:37;3.90;;;2.00;;
63110;SDS011;49201;53.426;10.300;2022-10-16T08:20:03;4.33;;;1.97;;
63110;SDS011;49201;53.426;10.300;2022-10-16T08:22:29;3.13;;;2.40;;
63110;SDS011;49201;53.426;10.300;2022-10-16T08:24:54;2.93;;;2.07;;
63110;SDS011;49201;53.426;10.300;2022-10-16T08:27:20;4.53;;;2.43;;
63110;SDS011;49201;53.426;10.300;2022-10-16T08:29:45;4.47;;;2.33;;
63110;SDS011;49201;53.426;10.300;2022-10-16T08:32:11;4.13;;;2.00;;
63110;SDS011;49201;53.426;10.300;2022-10-16T08:34:37;3.97;;;2.43;;
63110;SDS011;49201;53.426;10.300;2022-10-16T08:37:02;3.30;;;1.87;;
63110;SDS011;49201;53.426;10.300;2022-10-16T08:39:28;5.50;;;1.80;;
63110;SDS011;49201;53.426;10.300;2022-10-16T08:47:13;2.35;;;1.95;;
63110;SDS011;49201;53.426;10.300;2022-10-16T08:49:50;4.43;;;1.60;;
63110;SDS011;49201;53.426;10.300;2022-10-16T08:52:25;3.97;;;1.40;;
63110;SDS011;49201;53.426;10.300;2022-10-16T08:54:55;3.50;;;1.60;;
63110;SDS011;49201;53.426;10.300;2022-10-16T08:57:22;2.08;;;1.20;;
63110;SDS011;49201;53.426;10.300;2022-10-16T08:59:49;1.60;;;1.50;;
63110;SDS011;49201;53.426;10.300;2022-10-16T09:02:22;2.27;;;1.50;;
63110;SDS011;49201;53.426;10.300;2022-10-16T09:07:38;6.57;;;1.50;;
63110;SDS011;49201;53.426;10.300;2022-10-16T09:19:09;1.83;;;1.15;;
63110;SDS011;49201;53.426;10.300;2022-10-16T09:21:45;1.70;;;1.27;;
63110;SDS011;49201;53.426;10.300;2022-10-16T09:24:16;2.00;;;1.30;;
63110;SDS011;49201;53.426;10.300;2022-10-16T09:26:44;2.55;;;1.40;;
63110;SDS011;49201;53.426;10.300;2022-10-16T09:29:13;2.50;;;1.40;;
63110;SDS011;49201;53.426;10.300;2022-10-16T09:31:41;1.85;;;1.38;;
63110;SDS011;49201;53.426;10.300;2022-10-16T09:34:13;2.72;;;1.55;;
63110;SDS011;49201;53.426;10.300;2022-10-16T09:36:50;1.67;;;1.48;;
63110;SDS011;49201;53.426;10.300;2022-10-16T09:39:16;4.25;;;1.70;;
63110;SDS011;49201;53.426;10.300;2022-10-16T09:41:43;3.83;;;1.27;;
63110;SDS011;49201;53.426;10.300;2022-10-16T09:44:26;1.08;;;0.95;;
63110;SDS011;49201;53.426;10.300;2022-10-16T09:47:05;2.47;;;1.20;;
63110;SDS011;49201;53.426;10.300;2022-10-16T09:49:37;2.60;;;1.20;;
63110;SDS011;49201;53.426;10.300;2022-10-16T09:52:09;3.47;;;1.30;;
63110;SDS011;49201;53.426;10.300;2022-10-16T09:54:37;1.95;;;1.10;;
63110;SDS011;49201;53.426;10.300;2022-10-16T09:57:14;1.65;;;1.40;;
63110;SDS011;49201;53.426;10.300;2022-10-16T09:59:50;3.05;;;1.23;;
63110;SDS011;49201;53.426;10.300;2022-10-16T10:02:23;1.60;;;1.20;;
63110;SDS011;49201;53.426;10.300;2022-10-16T10:04:55;2.80;;;0.90;;
63110;SDS011;49201;53.426;10.300;2022-10-16T10:07:24;3.22;;;1.17;;
63110;SDS011;49201;53.426;10.300;2022-10-16T10:09:51;1.10;;;1.00;;
63110;SDS011;49201;53.426;10.300;2022-10-16T10:12:28;2.03;;;1.40;;
63110;SDS011;49201;53.426;10.300;2022-10-16T10:14:57;2.33;;;1.10;;
63110;SDS011;49201;53.426;10.300;2022-10-16T10:17:29;1.27;;;1.10;;
63110;SDS011;49201;53.426;10.300;2022-10-16T10:19:58;2.35;;;1.30;;
63110;SDS011;49201;53.426;10.300;2022-10-16T10:22:30;1.38;;;0.95;;
63110;SDS011;49201;53.426;10.300;2022-10-16T10:36:28;2.10;;;1.30;;
63110;SDS011;49201;53.426;10.300;2022-10-16T10:39:00;1.73;;;0.98;;
63110;SDS011;49201;53.426;10.300;2022-10-16T10:47:30;2.38;;;1.20;;
63110;SDS011;49201;53.426;10.300;2022-10-16T10:58:57;3.10;;;1.05;;
63110;SDS011;49201;53.426;10.300;2022-10-16T11:07:21;2.22;;;1.05;;
63110;SDS011;49201;53.426;10.300;2022-10-16T11:09:53;2.88;;;1.17;;
63110;SDS011;49201;53.426;10.300;2022-10-16T11:17:25;4.13;;;1.33;;
63110;SDS011;49201;53.426;10.300;2022-10-16T11:20:00;2.63;;;1.23;;
63110;SDS011;49201;53.426;10.300;2022-10-16T11:22:38;2.95;;;1.00;;
63110;SDS011;49201;53.426;10.300;2022-10-16T11:25:18;1.90;;;1.00;;
63110;SDS011;49201;53.426;10.300;2022-10-16T11:27:50;2.80;;;1.35;;
63110;SDS011;49201;53.426;10.300;2022-10-16T11:30:26;4.13;;;1.25;;
63110;SDS011;49201;53.426;10.300;2022-10-16T11:35:59;2.25;;;1.20;;
63110;SDS011;49201;53.426;10.300;2022-10-16T11:44:38;3.80;;;1.10;;
63110;SDS011;49201;53.426;10.300;2022-10-16T11:50:20;2.60;;;1.00;;
63110;SDS011;49201;53.426;10.300;2022-10-16T11:55:41;2.95;;;1.10;;
63110;SDS011;49201;53.426;10.300;2022-10-16T12:06:31;1.48;;;0.95;;
63110;SDS011;49201;53.426;10.300;2022-10-16T12:09:01;2.80;;;1.00;;
63110;SDS011;49201;53.426;10.300;2022-10-16T12:11:37;4.65;;;1.20;;
63110;SDS011;49201;53.426;10.300;2022-10-16T12:19:19;2.38;;;1.10;;
63110;SDS011;49201;53.426;10.300;2022-10-16T12:21:45;4.25;;;1.13;;
63110;SDS011;49201;53.426;10.300;2022-10-16T12:26:51;2.05;;;0.85;;
63110;SDS011;49201;53.426;10.300;2022-10-16T12:29:34;1.90;;;0.90;;
63110;SDS011;49201;53.426;10.300;2022-10-16T12:34:48;2.83;;;1.10;;
63110;SDS011;49201;53.426;10.300;2022-10-16T12:42:58;1.83;;;0.95;;
63110;SDS011;49201;53.426;10.300;2022-10-16T12:47:55;2.90;;;0.82;;
63110;SDS011;49201;53.426;10.300;2022-10-16T12:52:56;3.07;;;1.00;;
63110;SDS011;49201;53.426;10.300;2022-10-16T12:55:22;2.95;;;1.38;;
63110;SDS011;49201;53.426;10.300;2022-10-16T13:17:52;4.00;;;1.40;;
63110;SDS011;49201;53.426;10.300;2022-10-16T13:20:46;4.18;;;1.20;;
63110;SDS011;49201;53.426;10.300;2022-10-16T13:26:00;1.97;;;1.20;;
63110;SDS011;49201;53.426;10.300;2022-10-16T13:28:46;3.07;;;0.90;;
63110;SDS011;49201;53.426;10.300;2022-10-16T13:31:17;3.67;;;1.10;;
63110;SDS011;49201;53.426;10.300;2022-10-16T13:33:47;2.00;;;0.83;;
63110;SDS011;49201;53.426;10.300;2022-10-16T13:36:24;2.27;;;1.10;;
63110;SDS011;49201;53.426;10.300;2022-10-16T13:39:10;4.07;;;1.33;;
63110;SDS011;49201;53.426;10.300;2022-10-16T13:41:43;2.83;;;1.00;;
63110;SDS011;49201;53.426;10.300;2022-10-16T13:44:13;3.93;;;1.27;;
63110;SDS011;49201;53.426;10.300;2022-10-16T13:46:43;3.07;;;1.20;;
63110;SDS011;49201;53.426;10.300;2022-10-16T13:49:13;2.90;;;1.20;;
63110;SDS011;49201;53.426;10.300;2022-10-16T13:51:40;3.97;;;1.17;;
63110;SDS011;49201;53.426;10.300;2022-10-16T13:54:07;3.33;;;1.20;;
63110;SDS011;49201;53.426;10.300;2022-10-16T13:56:38;2.67;;;1.20;;
63110;SDS011;49201;53.426;10.300;2022-10-16T13:59:24;2.97;;;1.17;;
63110;SDS011;49201;53.426;10.300;2022-10-16T14:01:53;5.37;;;1.30;;
63110;SDS011;49201;53.426;10.300;2022-10-16T14:04:22;4.93;;;1.40;;
63110;SDS011;49201;53.426;10.300;2022-10-16T14:06:49;3.77;;;1.00;;
63110;SDS011;49201;53.426;10.300;2022-10-16T14:11:54;3.63;;;1.30;;
63110;SDS011;49201;53.426;10.300;2022-10-16T14:14:23;2.90;;;1.17;;
63110;SDS011;49201;53.426;10.300;2022-10-16T14:16:49;2.25;;;1.02;;
63110;SDS011;49201;53.426;10.300;2022-10-16T14:19:20;3.60;;;1.13;;
63110;SDS011;49201;53.426;10.300;2022-10-16T14:21:49;4.40;;;1.23;;
63110;SDS011;49201;53.426;10.300;2022-10-16T14:24:27;3.38;;;1.27;;
63110;SDS011;49201;53.426;10.300;2022-10-16T14:26:57;4.47;;;1.50;;
63110;SDS011;49201;53.426;10.300;2022-10-16T14:29:24;2.03;;;0.90;;
63110;SDS011;49201;53.426;10.300;2022-10-16T14:32:00;3.88;;;1.27;;
63110;SDS011;49201;53.426;10.300;2022-10-16T14:34:35;2.67;;;1.30;;
63110;SDS011;49201;53.426;10.300;2022-10-16T14:39:51;5.10;;;1.20;;
63110;SDS011;49201;53.426;10.300;2022-10-16T14:42:18;4.00;;;1.10;;
63110;SDS011;49201;53.426;10.300;2022-10-16T14:44:44;5.18;;;1.65;;
63110;SDS011;49201;53.426;10.300;2022-10-16T14:47:13;3.10;;;1.50;;
63110;SDS011;49201;53.426;10.300;2022-10-16T14:49:41;4.57;;;1.30;;
63110;SDS011;49201;53.426;10.300;2022-10-16T14:52:08;2.70;;;1.30;;
63110;SDS011;49201;53.426;10.300;2022-10-16T14:54:39;2.13;;;1.02;;
63110;SDS011;49201;53.426;10.300;2022-10-16T14:57:05;2.90;;;1.10;;
63110;SDS011;49201;53.426;10.300;2022-10-16T14:59:40;2.00;;;1.08;;
63110;SDS011;49201;53.426;10.300;2022-10-16T15:02:21;3.67;;;1.48;;
63110;SDS011;49201;53.426;10.300;2022-10-16T15:04:53;4.88;;;1.52;;
63110;SDS011;49201;53.426;10.300;2022-10-16T15:07:19;3.38;;;1.20;;
63110;SDS011;49201;53.426;10.300;2022-10-16T15:09:45;2.47;;;1.20;;
63110;SDS011;49201;53.426;10.300;2022-10-16T15:12:10;3.45;;;1.58;;
63110;SDS011;49201;53.426;10.300;2022-10-16T15:14:36;4.78;;;1.30;;
63110;SDS011;49201;53.426;10.300;2022-10-16T15:17:02;3.88;;;1.33;;
63110;SDS011;49201;53.426;10.300;2022-10-16T15:19:27;3.17;;;1.27;;
63110;SDS011;49201;53.426;10.300;2022-10-16T15:21:53;2.50;;;0.80;;
63110;SDS011;49201;53.426;10.300;2022-10-16T15:24:18;3.03;;;1.43;;
63110;SDS011;49201;53.426;10.300;2022-10-16T15:26:44;1.97;;;1.07;;
63110;SDS011;49201;53.426;10.300;2022-10-16T15:29:11;3.10;;;1.30;;
63110;SDS011;49201;53.426;10.300;2022-10-16T15:31:37;3.30;;;1.30;;
63110;SDS011;49201;53.426;10.300;2022-10-16T15:34:03;1.70;;;1.00;;
63110;SDS011;49201;53.426;10.300;2022-10-16T15:36:32;2.33;;;0.83;;
63110;SDS011;49201;53.426;10.300;2022-10-16T15:39:01;5.07;;;1.20;;
63110;SDS011;49201;53.426;10.300;2022-10-16T15:41:30;3.03;;;1.13;;
63110;SDS011;49201;53.426;10.300;2022-10-16T15:43:56;4.37;;;1.27;;
63110;SDS011;49201;53.426;10.300;2022-10-16T15:46:22;3.97;;;1.20;;
63110;SDS011;49201;53.426;10.300;2022-10-16T15:48:49;5.30;;;1.33;;
63110;SDS011;49201;53.426;10.300;2022-10-16T15:51:16;4.00;;;1.17;;
63110;SDS011;49201;53.426;10.300;2022-10-16T15:53:43;2.53;;;1.10;;
63110;SDS011;49201;53.426;10.300;2022-10-16T15:56:11;3.50;;;1.33;;
63110;SDS011;49201;53.426;10.300;2022-10-16T15:58:37;2.93;;;1.30;;
63110;SDS011;49201;53.426;10.300;2022-10-16T16:01:03;3.13;;;1.40;;
63110;SDS011;49201;53.426;10.300;2022-10-16T16:03:30;3.13;;;1.17;;
63110;SDS011;49201;53.426;10.300;2022-10-16T16:05:56;7.57;;;2.23;;
63110;SDS011;49201;53.426;10.300;2022-10-16T16:08:21;5.17;;;1.70;;
63110;SDS011;49201;53.426;10.300;2022-10-16T16:10:57;4.13;;;1.73;;
63110;SDS011;49201;53.426;10.300;2022-10-16T16:13:23;5.57;;;1.93;;
63110;SDS011;49201;53.426;10.300;2022-10-16T16:15:49;3.23;;;1.93;;
63110;SDS011;49201;53.426;10.300;2022-10-16T16:18:14;4.07;;;1.50;;
63110;SDS011;49201;53.426;10.300;2022-10-16T16:20:40;4.50;;;1.43;;
63110;SDS011;49201;53.426;10.300;2022-10-16T16:23:05;5.07;;;1.30;;
63110;SDS011;49201;53.426;10.300;2022-10-16T16:25:30;4.07;;;2.00;;
63110;SDS011;49201;53.426;10.300;2022-10-16T16:27:56;5.13;;;1.80;;
63110;SDS011;49201;53.426;10.300;2022-10-16T16:30:21;4.47;;;1.90;;
63110;SDS011;49201;53.426;10.300;2022-10-16T16:32:47;5.20;;;1.33;;
63110;SDS011;49201;53.426;10.300;2022-10-16T16:35:12;5.50;;;2.10;;
63110;SDS011;49201;53.426;10.300;2022-10-16T16:37:38;5.90;;;1.70;;
63110;SDS011;49201;53.426;10.300;2022-10-16T16:40:03;4.07;;;1.90;;
63110;SDS011;49201;53.426;10.300;2022-10-16T16:42:29;7.20;;;1.93;;
63110;SDS011;49201;53.426;10.300;2022-10-16T16:44:54;5.83;;;1.80;;
63110;SDS011;49201;53.426;10.300;2022-10-16T16:47:21;7.43;;;1.97;;
63110;SDS011;49201;53.426;10.300;2022-10-16T16:49:46;3.87;;;1.57;;
63110;SDS011;49201;53.426;10.300;2022-10-16T16:52:12;6.20;;;1.87;;
63110;SDS011;49201;53.426;10.300;2022-10-16T16:54:38;2.73;;;1.53;;
63110;SDS011;49201;53.426;10.300;2022-10-16T16:57:04;3.17;;;2.33;;
63110;SDS011;49201;53.426;10.300;2022-10-16T16:59:30;5.47;;;2.17;;
63110;SDS011;49201;53.426;10.300;2022-10-16T17:01:58;5.83;;;1.80;;
63110;SDS011;49201;53.426;10.300;2022-10-16T17:04:24;6.67;;;2.33;;